東京/羽田 の空港の天気 - METARとTAF

東京国際空港 ( RJTT / HND ) - 東京都大田区
飛行場実況気象(Metar)
観測時間04/25 23:30 JST (04/25 14:30 UTC)
風向・風速北北東 7m/s
視程8000m
天気現象弱いしゅう雨
少しの雲 雲底高度 120m
全天の4割程度の雲 雲底高度 240m
全天の8割程度の雲 雲底高度 370m
気温18℃
湿度94%
気圧1001hPa
METARRJTT 251430Z 03014KT 8000 -SHRA FEW004 SCT008 BKN012 18/17 Q1001 NOSIG RMK 1ST004 3ST008 5CU012 A2958
過去の天気等 Google飛行場航空写真 Wunderground天気予報

過去48時間のMETAR

飛行場予報(TAF)
発表時間: 4/25 20:13 JST (4/25 11:13 UTC)
予報対象時間: 25日21時 JST ~ 27日3時 JST
風向・風速北東 4m/s
視程10km以上
少しの雲 雲底高度 300m
全天の8割程度の雲 雲底高度 610m
25日21時 JST ~ 25日23時 JST に徐々に
風向・風速北 5m/s
26日5時 JST ~ 26日8時 JST に一時的に
風向・風速北 10m/s 瞬間風速 15m/s
26日15時 JST ~ 26日18時 JST に徐々に
風向・風速南東 6m/s
TAF RJTT 251113Z 2512/2618 05008KT 9999 FEW010 BKN020
BECMG 2512/2514 35010KT
TEMPO 2520/2523 35020G30KT
BECMG 2606/2609 14012KT
日本の空港のMETAR・TAFへのリンク

RJTT 東京国際空港
RJAA 新東京国際空港
RJBB 関西国際空港
RJOO 大阪空港
RJGG 中部国際空港
RJCC 新千歳空港
RJFF 福岡空港
ROAH 那覇空港


RJEC 旭川空港
RJCH 函館空港
RJCK 釧路空港
RJCM 女満別空港
RJCB 帯広空港
RJSA 青森空港
RJSS 仙台空港
RJSK 秋田空港
RJSF 福島空港
RJAH 茨城空港
RJSN 新潟空港
RJNT 富山空港
RJNK 小松飛行場
RJNS 静岡空港
RJOH 美保飛行場
RJOC 出雲空港
RJOB 岡山空港
RJOA 広島空港
RJOI 岩国飛行場
RJOT 高松空港
RJOM 松山空港
RJOK 高知空港
RJFR 北九州空港
RJFT 熊本空港
RJFU 長崎空港
RJFS 佐賀空港
RJFO 大分空港
RJFM 宮崎空港
RJFK 鹿児島空港
ROIG 石垣島空港
RJTY 横田飛行場
ROTM 普天間飛行場
RODN 嘉手納飛行場